Time;durP1;ratioP1;P1;durP2;ratioP2;P2;SDS_P1;SDS_P2;PMS_P1;PMS_P2;Temp;Humidity;BMP_temperature;BMP_pressure;BME280_temperature;BME280_humidity;BME280_pressure;Samples;Min_cycle;Max_cycle;Signal;HPM_P1;HPM_P2
2023/04/02 00:00:17;;;;;;;0.80;0.70;;;6.40;99.90;;;;;;4994075;28;20200;-78
2023/04/02 00:02:55;;;;;;;1.58;1.30;;;6.40;99.90;;;;;;4986384;28;20197;-78
2023/04/02 00:05:50;;;;;;;0.50;0.40;;;6.40;99.90;;;;;;4993235;28;20200;-79
2023/04/02 00:08:37;;;;;;;1.48;1.38;;;6.30;99.90;;;;;;4993810;28;20196;-78
2023/04/02 00:11:05;;;;;;;0.50;0.40;;;6.30;99.90;;;;;;4994163;28;20299;-79
2023/04/02 00:13:35;;;;;;;2.45;2.25;;;6.30;99.90;;;;;;4994181;28;20228;-79
2023/04/02 00:16:05;;;;;;;2.25;2.10;;;6.30;99.90;;;;;;4993739;28;20232;-79
2023/04/02 00:18:33;;;;;;;0.50;0.40;;;6.20;99.90;;;;;;4993277;28;20688;-79
2023/04/02 00:21:09;;;;;;;2.15;1.40;;;6.20;99.90;;;;;;4993735;28;20204;-79
2023/04/02 00:23:37;;;;;;;0.50;0.40;;;6.30;99.90;;;;;;4993497;28;20197;-78
2023/04/02 00:26:20;;;;;;;1.70;1.60;;;6.20;99.90;;;;;;4993496;28;20251;-78
2023/04/02 00:28:47;;;;;;;3.15;1.95;;;6.10;99.90;;;;;;4986729;28;20236;-79
2023/04/02 00:31:14;;;;;;;0.65;0.65;;;6.10;99.90;;;;;;4993645;28;20197;-79
2023/04/02 00:33:44;;;;;;;0.50;0.40;;;6.10;99.90;;;;;;4993427;28;20693;-78
2023/04/02 00:36:12;;;;;;;0.50;0.40;;;6.20;99.90;;;;;;4993545;28;20483;-79
2023/04/02 00:38:42;;;;;;;0.93;0.70;;;6.20;99.90;;;;;;4993594;28;20205;-79
2023/04/02 00:41:14;;;;;;;1.80;1.05;;;6.10;99.90;;;;;;4993638;28;20291;-79
2023/04/02 00:43:45;;;;;;;0.70;0.60;;;6.10;99.90;;;;;;4993245;28;20212;-78
2023/04/02 00:46:16;;;;;;;1.90;1.20;;;6.00;99.90;;;;;;4992825;28;20248;-79
2023/04/02 00:48:50;;;;;;;1.50;1.40;;;5.90;99.90;;;;;;4992955;28;20200;-78
2023/04/02 00:51:22;;;;;;;0.55;0.55;;;5.90;99.90;;;;;;4993386;28;20201;-78
2023/04/02 00:53:52;;;;;;;0.93;0.93;;;5.80;99.90;;;;;;4993289;28;20213;-78
2023/04/02 00:56:25;;;;;;;0.70;0.70;;;5.80;99.90;;;;;;4992575;28;20224;-78
2023/04/02 00:58:54;;;;;;;2.15;1.95;;;5.80;99.90;;;;;;4993112;28;20197;-78
2023/04/02 01:01:24;;;;;;;2.28;2.05;;;5.80;99.90;;;;;;4992705;28;20193;-78
2023/04/02 01:03:57;;;;;;;0.82;0.82;;;5.90;99.90;;;;;;4992870;28;20197;-78
2023/04/02 01:06:29;;;;;;;0.70;0.70;;;5.90;99.90;;;;;;4992484;28;20287;-78
2023/04/02 01:09:14;;;;;;;0.50;0.40;;;5.80;99.90;;;;;;4992942;28;20193;-79
2023/04/02 01:11:58;;;;;;;1.52;1.42;;;5.70;99.90;;;;;;4991888;28;20238;-78
2023/04/02 01:14:41;;;;;;;0.90;0.88;;;5.70;99.90;;;;;;4991889;28;20197;-78
2023/04/02 01:17:20;;;;;;;0.98;0.88;;;5.70;99.90;;;;;;4991853;28;20231;-78
2023/04/02 01:20:08;;;;;;;0.50;0.40;;;5.70;99.90;;;;;;4992034;28;20200;-78
2023/04/02 01:22:41;;;;;;;2.45;1.30;;;5.60;99.90;;;;;;4991880;28;20251;-78
2023/04/02 01:25:13;;;;;;;1.60;1.17;;;5.60;99.90;;;;;;4991758;28;20198;-78
2023/04/02 01:27:45;;;;;;;1.98;1.85;;;5.60;99.90;;;;;;4991798;28;20224;-78
2023/04/02 01:30:14;;;;;;;0.73;0.73;;;5.60;99.90;;;;;;4991800;28;20207;-78
2023/04/02 01:32:43;;;;;;;0.50;0.50;;;5.60;99.90;;;;;;4991893;28;20216;-78
2023/04/02 01:35:11;;;;;;;0.73;0.73;;;5.60;99.90;;;;;;4992048;28;20189;-79
2023/04/02 01:37:48;;;;;;;0.50;0.40;;;5.60;99.90;;;;;;4991879;28;20224;-78
2023/04/02 01:40:30;;;;;;;0.52;0.52;;;5.50;99.90;;;;;;4991901;28;20231;-79
2023/04/02 01:43:04;;;;;;;0.95;0.93;;;5.60;99.90;;;;;;4992053;28;20197;-78
2023/04/02 01:45:33;;;;;;;4.00;3.25;;;5.60;99.90;;;;;;4991500;28;20200;-78
2023/04/02 01:48:01;;;;;;;0.77;0.77;;;5.50;99.90;;;;;;4991962;28;20200;-77
2023/04/02 01:50:30;;;;;;;2.05;1.85;;;5.40;99.90;;;;;;4991614;28;20211;-78
2023/04/02 01:53:00;;;;;;;0.50;0.40;;;5.40;99.90;;;;;;4991428;28;20263;-78
2023/04/02 01:55:33;;;;;;;2.35;1.40;;;5.40;99.90;;;;;;4991151;28;20671;-78
2023/04/02 01:58:02;;;;;;;0.50;0.40;;;5.40;99.90;;;;;;4991981;28;20200;-78
2023/04/02 02:00:31;;;;;;;3.10;1.33;;;5.40;99.90;;;;;;4991662;28;20287;-78
2023/04/02 02:03:01;;;;;;;1.48;1.38;;;5.40;99.90;;;;;;4991567;28;20200;-78
2023/04/02 02:05:29;;;;;;;1.63;1.52;;;5.30;99.90;;;;;;4990788;28;20201;-77
2023/04/02 02:07:57;;;;;;;0.50;0.40;;;5.20;99.90;;;;;;4991477;28;20209;-78
2023/04/02 02:10:27;;;;;;;0.95;0.80;;;5.20;99.90;;;;;;4991203;28;20220;-77
2023/04/02 02:12:55;;;;;;;1.98;1.88;;;5.20;99.90;;;;;;4991342;28;20603;-78
2023/04/02 02:15:23;;;;;;;1.80;1.25;;;5.20;99.90;;;;;;4992525;28;20626;-78
2023/04/02 02:17:50;;;;;;;0.50;0.40;;;5.10;99.90;;;;;;4994940;28;20204;-78
2023/04/02 02:20:19;;;;;;;1.27;0.70;;;5.20;99.90;;;;;;4995508;28;20203;-78
2023/04/02 02:22:47;;;;;;;1.90;1.30;;;5.10;99.90;;;;;;4995249;28;20193;-78
2023/04/02 02:25:17;;;;;;;3.20;1.40;;;5.10;99.90;;;;;;4995235;28;20203;-78
2023/04/02 02:27:57;;;;;;;0.50;0.40;;;5.10;99.90;;;;;;4994766;28;20300;-78
2023/04/02 02:30:28;;;;;;;4.63;1.92;;;5.10;99.90;;;;;;4994808;28;20200;-78
2023/04/02 02:33:00;;;;;;;1.98;1.88;;;5.10;99.90;;;;;;4987808;28;20224;-78
2023/04/02 02:35:32;;;;;;;0.60;0.60;;;5.10;99.90;;;;;;4994423;28;20197;-78
2023/04/02 02:38:11;;;;;;;0.50;0.40;;;5.20;99.90;;;;;;4994929;28;20201;-78
2023/04/02 02:40:45;;;;;;;0.85;0.85;;;5.30;99.90;;;;;;4994431;28;20208;-78
2023/04/02 02:43:15;;;;;;;0.98;0.95;;;5.20;99.90;;;;;;4994555;28;20223;-78
2023/04/02 02:45:46;;;;;;;1.05;0.93;;;5.30;99.90;;;;;;4994527;28;20230;-78
2023/04/02 02:48:18;;;;;;;1.30;1.13;;;5.20;99.90;;;;;;4994649;28;20208;-78
2023/04/02 02:50:46;;;;;;;3.42;2.25;;;5.20;99.90;;;;;;4993913;28;20211;-78
2023/04/02 02:53:19;;;;;;;0.50;0.40;;;5.20;99.90;;;;;;4994510;28;20220;-78
2023/04/02 02:55:48;;;;;;;0.50;0.40;;;5.10;99.90;;;;;;4993512;28;20275;-78
2023/04/02 02:58:18;;;;;;;1.52;1.42;;;5.20;99.90;;;;;;4994626;28;20196;-78
2023/04/02 03:00:46;;;;;;;0.70;0.70;;;5.20;99.90;;;;;;4994065;28;20256;-78
2023/04/02 03:03:20;;;;;;;0.50;0.50;;;5.10;99.90;;;;;;4994293;28;20204;-78
2023/04/02 03:05:53;;;;;;;0.50;0.40;;;5.10;99.90;;;;;;4993854;28;20240;-78
2023/04/02 03:08:27;;;;;;;0.50;0.40;;;5.20;99.90;;;;;;4994208;28;20671;-78
2023/04/02 03:10:58;;;;;;;0.50;0.40;;;5.20;99.90;;;;;;4986846;28;20238;-78
2023/04/02 03:13:31;;;;;;;0.50;0.45;;;5.10;99.90;;;;;;4993828;28;20223;-78
2023/04/02 03:16:03;;;;;;;0.50;0.40;;;5.10;99.90;;;;;;4993780;28;20224;-78
2023/04/02 03:18:40;;;;;;;0.52;0.52;;;4.90;99.90;;;;;;4993769;28;20201;-78
2023/04/02 03:21:18;;;;;;;7.03;2.45;;;5.10;99.90;;;;;;4993984;28;20218;-78
2023/04/02 03:23:48;;;;;;;1.13;1.13;;;4.90;99.90;;;;;;4994161;28;20196;-78
2023/04/02 03:26:19;;;;;;;1.77;1.30;;;4.90;99.90;;;;;;4992610;28;20216;-78
2023/04/02 03:28:52;;;;;;;1.27;1.25;;;4.80;99.90;;;;;;4994070;28;20200;-78
2023/04/02 03:31:25;;;;;;;1.25;0.95;;;4.80;99.90;;;;;;4994042;28;20200;-78
2023/04/02 03:33:58;;;;;;;4.82;2.28;;;4.70;99.90;;;;;;4993604;28;20235;-78
2023/04/02 03:36:29;;;;;;;0.88;0.55;;;4.60;99.90;;;;;;4993548;28;20561;-77
2023/04/02 03:39:04;;;;;;;1.30;1.20;;;4.70;99.90;;;;;;4993977;28;20201;-78
2023/04/02 03:41:38;;;;;;;0.73;0.57;;;4.70;99.90;;;;;;4993346;28;20196;-77
2023/04/02 03:44:11;;;;;;;0.50;0.40;;;4.60;99.90;;;;;;4993631;28;20193;-77
2023/04/02 03:46:44;;;;;;;0.50;0.50;;;4.60;99.90;;;;;;4993427;28;20604;-78
2023/04/02 03:49:16;;;;;;;2.25;2.03;;;4.60;99.90;;;;;;4993750;28;20219;-78
2023/04/02 03:51:52;;;;;;;1.55;0.88;;;4.60;99.90;;;;;;4993187;28;20212;-78
2023/04/02 03:54:20;;;;;;;3.20;0.80;;;4.60;99.90;;;;;;4992967;28;20212;-78
2023/04/02 03:56:47;;;;;;;1.50;0.90;;;4.70;99.90;;;;;;4993019;28;20259;-77
2023/04/02 03:59:21;;;;;;;0.80;0.80;;;4.60;99.90;;;;;;4993014;28;20196;-78
2023/04/02 04:01:55;;;;;;;1.50;1.40;;;4.70;99.90;;;;;;4992875;28;20206;-78
2023/04/02 04:04:23;;;;;;;0.60;0.60;;;4.60;99.90;;;;;;4992865;28;20189;-78
2023/04/02 04:06:52;;;;;;;1.50;1.30;;;4.70;99.90;;;;;;4992811;28;20597;-78
2023/04/02 04:09:25;;;;;;;0.50;0.40;;;4.60;99.90;;;;;;4992995;28;20196;-78
2023/04/02 04:11:57;;;;;;;1.02;0.70;;;4.60;99.90;;;;;;4992847;28;20243;-78
2023/04/02 04:14:31;;;;;;;1.25;1.00;;;4.60;99.90;;;;;;4992869;28;20224;-78
2023/04/02 04:17:04;;;;;;;3.75;2.13;;;4.70;99.90;;;;;;4992968;28;20220;-78
2023/04/02 04:19:38;;;;;;;0.50;0.47;;;4.60;99.90;;;;;;4992628;28;20193;-77
2023/04/02 04:22:13;;;;;;;0.60;0.60;;;4.50;99.90;;;;;;4992875;28;20201;-78
2023/04/02 04:24:44;;;;;;;3.17;2.88;;;4.50;99.90;;;;;;4992495;28;20200;-78
2023/04/02 04:27:20;;;;;;;0.50;0.40;;;4.50;99.90;;;;;;4992786;28;20220;-79
2023/04/02 04:29:53;;;;;;;1.30;1.20;;;4.60;99.90;;;;;;4992385;28;20204;-78
2023/04/02 04:32:30;;;;;;;7.90;2.88;;;4.50;99.90;;;;;;4992563;28;20207;-78
2023/04/02 04:35:02;;;;;;;6.18;1.05;;;4.50;99.90;;;;;;4984633;28;20216;-78
2023/04/02 04:37:37;;;;;;;0.50;0.40;;;4.50;99.90;;;;;;4992204;28;20247;-78
2023/04/02 04:40:12;;;;;;;4.20;2.30;;;4.60;99.90;;;;;;4985608;28;20250;-78
2023/04/02 04:42:41;;;;;;;0.95;0.93;;;4.60;99.90;;;;;;4992285;28;20207;-78
2023/04/02 04:45:21;;;;;;;0.60;0.50;;;4.50;99.90;;;;;;4992002;28;20204;-79
2023/04/02 04:47:54;;;;;;;2.60;1.00;;;4.50;99.90;;;;;;4992203;28;20200;-78
2023/04/02 04:50:32;;;;;;;0.50;0.40;;;4.50;99.90;;;;;;4992481;28;20196;-78
2023/04/02 04:53:06;;;;;;;4.30;3.15;;;4.50;99.90;;;;;;4992049;28;20200;-78
2023/04/02 04:55:37;;;;;;;3.70;3.33;;;4.50;99.90;;;;;;4991953;28;20611;-78
2023/04/02 04:58:11;;;;;;;0.80;0.80;;;4.40;99.90;;;;;;4992221;28;20208;-78
2023/04/02 05:00:47;;;;;;;0.60;0.60;;;4.30;99.90;;;;;;4992042;28;20209;-78
2023/04/02 05:03:22;;;;;;;0.88;0.88;;;4.30;99.90;;;;;;4991775;28;20197;-78
2023/04/02 05:05:49;;;;;;;4.05;3.00;;;4.20;99.90;;;;;;4991560;28;20227;-78
2023/04/02 05:08:22;;;;;;;0.93;0.90;;;4.10;99.90;;;;;;4992044;28;20208;-77
2023/04/02 05:10:52;;;;;;;0.95;0.95;;;4.10;99.90;;;;;;4991961;28;20204;-77
2023/04/02 05:13:24;;;;;;;0.50;0.40;;;4.10;99.90;;;;;;4991832;28;20208;-78
2023/04/02 05:16:01;;;;;;;0.88;0.88;;;4.10;99.90;;;;;;4991090;28;20232;-78
2023/04/02 05:18:32;;;;;;;0.50;0.40;;;4.20;99.90;;;;;;4992053;28;20196;-77
2023/04/02 05:21:06;;;;;;;17.58;4.93;;;4.20;99.90;;;;;;4983974;28;20661;-77
2023/04/02 05:23:39;;;;;;;2.05;1.95;;;4.20;99.90;;;;;;4991686;28;20244;-77
2023/04/02 05:26:11;;;;;;;2.85;2.63;;;4.10;99.90;;;;;;4984129;28;20226;-77
2023/04/02 05:28:45;;;;;;;1.90;1.25;;;4.10;99.90;;;;;;4991962;28;20220;-77
2023/04/02 05:31:16;;;;;;;2.90;2.17;;;4.10;99.90;;;;;;4991691;28;20207;-77
2023/04/02 05:33:45;;;;;;;1.58;1.48;;;4.10;99.90;;;;;;4991244;28;20244;-78
2023/04/02 05:36:20;;;;;;;2.67;2.22;;;4.20;99.90;;;;;;4991355;28;20221;-77
2023/04/02 05:38:50;;;;;;;0.73;0.73;;;4.10;99.90;;;;;;4991328;28;20208;-78
2023/04/02 05:41:25;;;;;;;1.25;1.02;;;4.10;99.90;;;;;;4991889;28;20199;-77
2023/04/02 05:43:59;;;;;;;3.60;1.90;;;4.20;99.90;;;;;;4991442;28;20196;-78
2023/04/02 05:46:31;;;;;;;0.60;0.60;;;4.20;99.90;;;;;;4991525;28;20220;-78
2023/04/02 05:48:59;;;;;;;0.50;0.50;;;4.20;99.90;;;;;;4991403;28;20204;-78
2023/04/02 05:51:30;;;;;;;0.50;0.50;;;4.10;99.90;;;;;;4995024;28;20274;-78
2023/04/02 05:54:03;;;;;;;4.45;3.08;;;4.10;99.90;;;;;;5001461;28;20224;-78
2023/04/02 05:56:37;;;;;;;2.45;1.52;;;4.10;99.90;;;;;;4997375;28;20225;-78
2023/04/02 05:59:07;;;;;;;9.68;6.25;;;4.00;99.90;;;;;;4989903;28;20200;-77
2023/04/02 06:01:40;;;;;;;3.35;2.58;;;4.00;99.90;;;;;;4996425;28;20196;-78
2023/04/02 06:04:17;;;;;;;2.95;1.73;;;3.90;99.90;;;;;;4988579;28;20197;-77
2023/04/02 06:06:49;;;;;;;0.50;0.50;;;3.80;99.90;;;;;;4995063;28;20398;-77
2023/04/02 06:09:24;;;;;;;2.63;1.40;;;3.80;99.90;;;;;;4995081;28;20247;-77
2023/04/02 06:11:56;;;;;;;1.02;1.02;;;3.80;99.90;;;;;;4994827;28;20200;-77
2023/04/02 06:14:23;;;;;;;1.00;0.75;;;3.80;99.90;;;;;;4994726;28;20212;-78
2023/04/02 06:16:50;;;;;;;2.08;1.00;;;3.80;99.90;;;;;;4994568;28;20229;-77
2023/04/02 06:19:22;;;;;;;0.52;0.45;;;3.90;99.90;;;;;;4994946;28;20197;-78
2023/04/02 06:21:52;;;;;;;2.15;2.05;;;3.90;99.90;;;;;;4994684;28;20212;-78
2023/04/02 06:24:24;;;;;;;2.28;2.15;;;4.00;99.90;;;;;;4994881;28;20619;-78
2023/04/02 06:26:56;;;;;;;4.13;1.77;;;4.00;99.90;;;;;;4994500;28;20231;-77
2023/04/02 06:29:29;;;;;;;1.48;1.38;;;4.00;99.90;;;;;;4994510;28;20291;-78
2023/04/02 06:31:59;;;;;;;0.85;0.85;;;4.00;99.90;;;;;;4994561;28;20232;-77
2023/04/02 06:34:29;;;;;;;1.60;1.48;;;3.90;99.90;;;;;;4994141;28;20296;-78
2023/04/02 06:36:59;;;;;;;0.60;0.50;;;3.90;99.90;;;;;;4994474;28;20216;-77
2023/04/02 06:39:28;;;;;;;1.95;1.83;;;3.90;99.90;;;;;;4994449;28;20203;-77
2023/04/02 06:41:59;;;;;;;0.77;0.77;;;4.00;99.90;;;;;;4994436;28;20201;-77
2023/04/02 06:44:31;;;;;;;1.90;1.80;;;3.90;99.90;;;;;;4994065;28;20193;-77
2023/04/02 06:47:02;;;;;;;2.88;2.65;;;4.00;99.90;;;;;;4994720;28;20224;-78
2023/04/02 06:49:36;;;;;;;1.65;1.55;;;4.00;99.90;;;;;;4994961;28;20200;-77
2023/04/02 06:52:06;;;;;;;0.50;0.40;;;4.00;99.90;;;;;;4994913;28;20200;-78
2023/04/02 06:54:34;;;;;;;3.53;1.25;;;4.00;99.90;;;;;;4994642;28;20216;-78
2023/04/02 06:57:01;;;;;;;1.25;1.15;;;4.00;99.90;;;;;;4994897;28;20219;-78
2023/04/02 06:59:28;;;;;;;3.33;1.85;;;4.00;99.90;;;;;;4995197;28;20193;-77
2023/04/02 07:01:58;;;;;;;0.50;0.40;;;4.10;99.90;;;;;;4994514;28;20204;-77
2023/04/02 07:04:26;;;;;;;0.60;0.60;;;4.20;99.90;;;;;;4995517;28;20280;-78
2023/04/02 07:06:53;;;;;;;5.43;3.47;;;4.20;99.90;;;;;;4995027;28;20224;-78
2023/04/02 07:09:20;;;;;;;1.80;1.67;;;4.30;99.90;;;;;;4994243;28;20203;-77
2023/04/02 07:11:48;;;;;;;1.02;0.70;;;4.40;99.90;;;;;;4993640;28;20209;-77
2023/04/02 07:14:15;;;;;;;0.73;0.60;;;4.30;99.90;;;;;;4993543;28;20212;-77
2023/04/02 07:16:43;;;;;;;1.05;0.65;;;4.30;99.90;;;;;;4993640;28;20232;-77
2023/04/02 07:19:18;;;;;;;0.93;0.93;;;4.30;99.90;;;;;;4993826;28;20287;-77
2023/04/02 07:21:45;;;;;;;3.63;1.85;;;4.50;99.90;;;;;;4993744;28;20671;-76
2023/04/02 07:24:12;;;;;;;0.50;0.40;;;4.60;99.90;;;;;;4993506;28;20204;-78
2023/04/02 07:26:39;;;;;;;3.08;2.85;;;4.40;99.90;;;;;;4993722;28;20217;-78
2023/04/02 07:29:09;;;;;;;0.50;0.40;;;4.40;99.90;;;;;;4993329;28;20193;-77
2023/04/02 07:31:38;;;;;;;1.95;1.38;;;4.30;99.90;;;;;;4993685;28;20668;-77
2023/04/02 07:34:05;;;;;;;3.13;2.03;;;4.30;99.90;;;;;;4993466;28;20207;-76
2023/04/02 07:36:32;;;;;;;0.65;0.63;;;4.30;99.90;;;;;;4993134;28;20224;-75
2023/04/02 07:38:59;;;;;;;0.50;0.40;;;4.20;99.90;;;;;;4993526;28;20204;-77
2023/04/02 07:41:26;;;;;;;0.50;0.40;;;4.40;99.90;;;;;;4993582;28;20201;-77
2023/04/02 07:43:53;;;;;;;0.52;0.50;;;4.50;99.90;;;;;;4993110;28;20200;-76
2023/04/02 07:46:21;;;;;;;1.50;1.40;;;4.40;99.90;;;;;;4992990;28;20217;-76
2023/04/02 07:48:48;;;;;;;1.55;1.45;;;4.30;99.90;;;;;;4992818;28;20277;-76
2023/04/02 07:51:17;;;;;;;1.10;1.00;;;4.30;99.90;;;;;;4992755;28;20255;-76
2023/04/02 07:53:44;;;;;;;0.70;0.70;;;4.30;99.90;;;;;;4993266;28;20643;-76
2023/04/02 07:56:15;;;;;;;0.82;0.82;;;4.20;99.90;;;;;;4992543;28;20586;-76
2023/04/02 07:58:42;;;;;;;0.50;0.50;;;4.20;99.90;;;;;;4993663;28;20201;-77
2023/04/02 08:01:17;;;;;;;0.50;0.40;;;4.20;99.90;;;;;;4993958;28;20200;-77
2023/04/02 08:03:45;;;;;;;4.60;2.28;;;4.20;99.90;;;;;;4993338;28;20207;-76
2023/04/02 08:06:12;;;;;;;6.38;6.00;;;4.20;99.90;;;;;;4992759;28;20209;-77
2023/04/02 08:08:39;;;;;;;1.73;1.40;;;4.30;99.90;;;;;;4992774;28;20207;-76
2023/04/02 08:11:06;;;;;;;6.85;4.75;;;4.20;99.90;;;;;;4992501;28;20197;-77
2023/04/02 08:13:33;;;;;;;9.20;2.40;;;4.30;99.90;;;;;;4992450;28;20223;-76
2023/04/02 08:16:01;;;;;;;2.78;2.53;;;4.40;99.90;;;;;;4991960;28;20233;-77
2023/04/02 08:18:28;;;;;;;3.42;2.15;;;4.50;99.90;;;;;;4992876;28;20208;-77
2023/04/02 08:20:57;;;;;;;0.50;0.40;;;4.50;99.90;;;;;;4992397;28;20219;-76
2023/04/02 08:23:24;;;;;;;0.70;0.70;;;4.50;99.90;;;;;;4992981;28;20203;-77
2023/04/02 08:25:52;;;;;;;1.50;1.02;;;4.60;99.90;;;;;;4991925;28;20221;-76
2023/04/02 08:28:19;;;;;;;16.10;14.85;;;4.60;99.90;;;;;;4992354;28;20207;-76
2023/04/02 08:30:47;;;;;;;1.95;1.63;;;4.60;99.90;;;;;;5009706;23;20708;-79
2023/04/02 08:33:14;;;;;;;1.40;1.33;;;4.50;99.90;;;;;;4980493;28;20208;-77
2023/04/02 08:35:41;;;;;;;2.17;1.75;;;4.50;99.90;;;;;;4983490;28;20214;-80
2023/04/02 08:38:14;;;;;;;4.53;3.03;;;4.60;99.90;;;;;;4984228;28;20197;-80
2023/04/02 08:40:43;;;;;;;5.47;4.68;;;4.70;99.90;;;;;;4984701;28;20221;-80
2023/04/02 08:43:29;;;;;;;3.92;2.92;;;4.80;99.90;;;;;;4985717;28;20193;-80
2023/04/02 08:46:04;;;;;;;0.50;0.50;;;4.80;99.90;;;;;;4985348;28;20239;-80
2023/04/02 08:48:35;;;;;;;0.85;0.77;;;4.80;99.90;;;;;;4985452;28;20200;-80
2023/04/02 08:51:03;;;;;;;0.98;0.75;;;4.90;99.90;;;;;;4984720;28;20311;-80
2023/04/02 08:53:34;;;;;;;1.95;1.77;;;5.00;99.90;;;;;;4985449;28;20201;-80
2023/04/02 08:56:08;;;;;;;1.65;1.55;;;5.10;99.90;;;;;;4985141;28;20304;-80
2023/04/02 08:58:41;;;;;;;0.90;0.90;;;5.30;99.90;;;;;;4984583;28;20657;-79
2023/04/02 09:01:15;;;;;;;1.35;1.25;;;5.40;99.90;;;;;;4984702;28;20221;-78
2023/04/02 09:03:47;;;;;;;3.15;1.63;;;5.40;99.90;;;;;;4984772;28;20201;-80
2023/04/02 09:06:17;;;;;;;0.95;0.50;;;5.50;99.90;;;;;;4975747;28;20208;-80
2023/04/02 09:08:47;;;;;;;2.08;1.85;;;5.50;99.90;;;;;;4984377;28;20201;-80
2023/04/02 09:11:23;;;;;;;0.73;0.70;;;5.60;99.90;;;;;;4977695;28;20217;-79
2023/04/02 09:13:55;;;;;;;0.50;0.50;;;5.60;99.90;;;;;;4985041;28;20205;-80
2023/04/02 09:16:33;;;;;;;0.77;0.73;;;5.70;99.90;;;;;;4984110;28;20241;-80
2023/04/02 09:19:01;;;;;;;1.23;0.75;;;5.80;99.90;;;;;;4984198;28;20201;-80
2023/04/02 09:21:34;;;;;;;0.50;0.40;;;6.00;99.90;;;;;;4984568;28;20213;-80
2023/04/02 09:24:03;;;;;;;1.40;0.90;;;6.00;99.90;;;;;;4985059;28;20206;-80
2023/04/02 09:26:32;;;;;;;1.17;1.08;;;6.00;99.90;;;;;;4988387;28;20204;-80
2023/04/02 09:29:09;;;;;;;0.60;0.50;;;6.10;99.90;;;;;;4988557;28;20215;-80
2023/04/02 09:31:39;;;;;;;1.02;1.00;;;6.20;99.90;;;;;;4988373;28;20296;-80
2023/04/02 09:34:26;;;;;;;1.77;1.67;;;6.30;99.90;;;;;;4988581;28;20201;-80
2023/04/02 09:36:53;;;;;;;0.80;0.80;;;6.50;99.90;;;;;;4988488;28;20201;-80
2023/04/02 09:39:24;;;;;;;1.92;1.80;;;6.70;99.90;;;;;;4987839;28;20216;-80
2023/04/02 09:41:52;;;;;;;1.23;1.13;;;6.90;99.90;;;;;;4988558;28;20221;-79
2023/04/02 09:44:22;;;;;;;0.50;0.40;;;6.80;99.90;;;;;;4988178;28;20205;-80
2023/04/02 09:46:55;;;;;;;0.50;0.40;;;6.90;99.90;;;;;;4988398;28;20450;-80
2023/04/02 09:49:25;;;;;;;3.25;1.67;;;6.80;99.90;;;;;;4981298;28;20201;-78
2023/04/02 09:52:17;;;;;;;2.95;1.90;;;6.60;99.90;;;;;;4988432;28;20228;-80
2023/04/02 09:54:47;;;;;;;0.50;0.40;;;6.80;99.90;;;;;;4987649;28;20197;-80
2023/04/02 09:57:26;;;;;;;1.75;1.30;;;6.70;99.90;;;;;;4988340;28;20283;-81
2023/04/02 10:00:18;;;;;;;0.93;0.93;;;6.80;99.90;;;;;;4988127;28;20248;-80
2023/04/02 10:02:46;;;;;;;1.30;1.20;;;6.80;99.90;;;;;;4985948;28;20201;-80
2023/04/02 10:05:20;;;;;;;2.70;2.53;;;6.80;99.90;;;;;;4987375;28;20198;-80
2023/04/02 10:07:49;;;;;;;1.00;1.00;;;6.80;99.90;;;;;;4988941;28;20609;-80
2023/04/02 10:10:21;;;;;;;0.60;0.50;;;6.70;99.90;;;;;;4988335;28;20197;-80
2023/04/02 10:12:52;;;;;;;0.60;0.60;;;6.70;99.90;;;;;;4988669;28;20286;-80
2023/04/02 10:15:26;;;;;;;0.63;0.63;;;6.70;99.90;;;;;;4987932;28;20209;-80
2023/04/02 10:18:00;;;;;;;0.65;0.65;;;6.50;99.90;;;;;;4988069;28;20270;-80
2023/04/02 10:20:29;;;;;;;1.20;1.20;;;6.30;99.90;;;;;;4987999;28;20577;-80
2023/04/02 10:22:56;;;;;;;0.77;0.77;;;6.20;99.90;;;;;;4988626;28;20293;-80
2023/04/02 10:25:30;;;;;;;0.75;0.75;;;6.30;99.90;;;;;;4987714;28;20199;-80
2023/04/02 10:28:05;;;;;;;1.30;1.30;;;6.30;99.90;;;;;;4987520;28;20208;-80
2023/04/02 10:30:44;;;;;;;0.80;0.73;;;6.30;99.90;;;;;;4987920;28;20220;-80
2023/04/02 10:33:18;;;;;;;0.50;0.50;;;6.30;99.90;;;;;;4987751;28;20208;-78
2023/04/02 10:35:53;;;;;;;0.60;0.60;;;6.20;99.90;;;;;;4987368;28;20221;-81
2023/04/02 10:38:31;;;;;;;0.60;0.50;;;6.10;99.90;;;;;;4987301;28;20265;-79
2023/04/02 10:41:04;;;;;;;0.50;0.40;;;6.10;99.90;;;;;;4987532;28;20235;-81
2023/04/02 10:43:44;;;;;;;0.63;0.63;;;6.10;99.90;;;;;;4988463;28;20197;-81
2023/04/02 10:46:20;;;;;;;0.50;0.40;;;6.10;99.90;;;;;;4987912;28;20201;-81
2023/04/02 10:48:53;;;;;;;1.20;0.82;;;6.20;99.90;;;;;;4986976;28;20197;-81
2023/04/02 10:51:31;;;;;;;0.50;0.40;;;6.30;99.90;;;;;;4980055;28;20217;-81
2023/04/02 10:54:03;;;;;;;0.95;0.85;;;6.50;99.90;;;;;;4987298;28;20207;-81
2023/04/02 10:56:32;;;;;;;1.30;1.20;;;6.30;99.90;;;;;;4987471;28;20270;-81
2023/04/02 10:59:05;;;;;;;1.10;1.10;;;6.20;99.90;;;;;;4987909;28;20209;-81
2023/04/02 11:01:34;;;;;;;1.10;1.05;;;6.20;99.90;;;;;;4988196;28;20213;-81
2023/04/02 11:04:05;;;;;;;1.00;1.00;;;6.00;99.90;;;;;;4990280;28;20270;-80
2023/04/02 11:06:38;;;;;;;2.25;2.15;;;6.00;99.90;;;;;;4987470;28;20195;-81
2023/04/02 11:09:13;;;;;;;1.13;0.77;;;6.10;99.90;;;;;;4987778;28;20208;-81
2023/04/02 11:11:44;;;;;;;0.65;0.60;;;6.30;99.90;;;;;;4986834;28;20225;-81
2023/04/02 11:14:15;;;;;;;1.35;1.27;;;6.40;99.90;;;;;;4987939;28;20197;-81
2023/04/02 11:16:42;;;;;;;0.50;0.40;;;6.30;99.90;;;;;;4987272;28;20227;-80
2023/04/02 11:19:25;;;;;;;1.70;1.20;;;6.60;99.90;;;;;;4987908;28;20229;-80
2023/04/02 11:21:54;;;;;;;0.50;0.40;;;6.80;99.90;;;;;;4987730;28;20228;-80
2023/04/02 11:24:31;;;;;;;0.50;0.40;;;6.90;99.90;;;;;;4978946;28;20223;-80
2023/04/02 11:27:07;;;;;;;0.50;0.40;;;7.10;99.90;;;;;;4986696;28;20201;-80
2023/04/02 11:29:37;;;;;;;0.50;0.40;;;7.30;99.90;;;;;;4987538;28;20197;-80
2023/04/02 11:32:38;;;;;;;0.50;0.40;;;7.20;99.90;;;;;;4986588;28;20225;-80
2023/04/02 11:35:27;;;;;;;0.65;0.65;;;7.40;99.90;;;;;;4986941;28;20227;-80
2023/04/02 11:37:58;;;;;;;0.55;0.52;;;7.50;99.90;;;;;;4986356;28;20228;-80
2023/04/02 11:40:47;;;;;;;0.50;0.50;;;7.60;99.90;;;;;;4987050;28;20193;-81
2023/04/02 11:43:52;;;;;;;5.85;2.25;;;7.80;99.90;;;;;;4986992;28;20284;-78
2023/04/02 11:46:44;;;;;;;3.15;1.02;;;7.60;99.90;;;;;;4987583;28;20198;-79
2023/04/02 11:49:33;;;;;;;0.70;0.70;;;7.40;99.90;;;;;;4972846;28;20227;-81
2023/04/02 11:52:00;;;;;;;0.50;0.40;;;7.40;99.90;;;;;;4987235;28;20312;-81
2023/04/02 11:54:31;;;;;;;1.60;1.15;;;7.10;99.90;;;;;;4986394;28;20197;-81
2023/04/02 11:57:06;;;;;;;0.70;0.70;;;6.90;99.90;;;;;;4986594;28;20217;-79
2023/04/02 11:59:43;;;;;;;1.23;1.10;;;7.10;99.90;;;;;;4987126;28;20197;-81
2023/04/02 12:02:20;;;;;;;0.50;0.40;;;7.40;99.90;;;;;;4987071;28;20750;-81
2023/04/02 12:05:08;;;;;;;1.70;1.08;;;7.60;99.90;;;;;;4987971;28;20287;-81
2023/04/02 12:08:03;;;;;;;1.58;0.95;;;7.70;99.90;;;;;;4981262;28;20209;-81
2023/04/02 12:10:33;;;;;;;0.50;0.40;;;8.00;99.90;;;;;;4979987;28;20217;-81
2023/04/02 12:13:00;;;;;;;0.60;0.50;;;8.10;99.90;;;;;;4987480;28;20211;-80
2023/04/02 12:15:37;;;;;;;3.45;1.05;;;8.10;99.90;;;;;;4987186;28;20194;-82
2023/04/02 12:18:15;;;;;;;0.60;0.57;;;7.90;99.90;;;;;;4987979;28;20201;-82
2023/04/02 12:20:47;;;;;;;0.73;0.73;;;7.80;99.90;;;;;;4987018;28;20228;-81
2023/04/02 12:23:20;;;;;;;1.67;0.93;;;7.90;99.90;;;;;;4986815;28;20208;-80
2023/04/02 12:25:54;;;;;;;0.50;0.40;;;8.10;99.90;;;;;;4987338;28;20198;-81
2023/04/02 12:28:22;;;;;;;1.00;0.70;;;8.20;99.90;;;;;;4987313;28;20197;-81
2023/04/02 12:30:51;;;;;;;0.50;0.40;;;8.20;99.90;;;;;;4988286;28;20233;-81
2023/04/02 12:33:29;;;;;;;0.50;0.40;;;8.30;99.90;;;;;;4987381;28;20553;-82
2023/04/02 12:35:57;;;;;;;0.50;0.50;;;8.60;99.90;;;;;;4986674;28;20223;-81
2023/04/02 12:38:26;;;;;;;0.50;0.45;;;8.50;99.90;;;;;;4978805;28;20681;-81
2023/04/02 12:40:54;;;;;;;0.50;0.40;;;8.60;99.90;;;;;;4986985;28;20641;-82
2023/04/02 12:43:26;;;;;;;2.30;2.15;;;8.60;99.90;;;;;;4986562;28;20197;-81
2023/04/02 12:45:56;;;;;;;0.75;0.75;;;8.20;99.90;;;;;;4986616;28;20260;-81
2023/04/02 12:48:23;;;;;;;1.02;0.95;;;8.30;99.90;;;;;;4986046;28;20201;-81
2023/04/02 12:50:50;;;;;;;0.50;0.40;;;8.10;99.90;;;;;;4986823;28;20377;-81
2023/04/02 12:53:23;;;;;;;0.50;0.40;;;8.10;99.90;;;;;;4987256;28;20209;-81
2023/04/02 12:55:52;;;;;;;0.50;0.40;;;8.00;99.90;;;;;;4986870;28;20720;-82
2023/04/02 12:58:26;;;;;;;1.60;1.15;;;8.10;99.90;;;;;;4986497;28;20284;-81
2023/04/02 13:01:10;;;;;;;0.70;0.70;;;8.00;99.90;;;;;;4987288;28;20233;-82
2023/04/02 13:03:37;;;;;;;0.50;0.40;;;7.80;99.90;;;;;;4980383;28;20209;-81
2023/04/02 13:06:17;;;;;;;0.63;0.63;;;7.60;99.90;;;;;;4993454;28;20216;-81
2023/04/02 13:08:44;;;;;;;0.50;0.40;;;7.50;99.90;;;;;;4997304;28;20248;-81
2023/04/02 13:11:11;;;;;;;0.50;0.40;;;7.40;99.90;;;;;;4987945;28;20224;-79
2023/04/02 13:13:39;;;;;;;0.50;0.40;;;7.40;99.90;;;;;;4988265;28;20675;-81
2023/04/02 13:16:27;;;;;;;1.77;1.70;;;7.50;99.90;;;;;;4986410;28;20217;-81
2023/04/02 13:19:10;;;;;;;0.90;0.88;;;7.40;99.90;;;;;;4987526;28;20229;-81
2023/04/02 13:21:37;;;;;;;0.93;0.57;;;7.30;99.90;;;;;;4980283;28;20603;-82
2023/04/02 13:24:05;;;;;;;0.60;0.60;;;7.40;99.90;;;;;;4986449;28;20241;-81